createdAt,value
2018-09-08T00:01:26.336Z,72.90
2018-09-08T00:03:54.483Z,73.10
2018-09-08T00:06:28.177Z,73.40
2018-09-08T00:08:56.262Z,73.50
2018-09-08T00:13:49.465Z,73.40
2018-09-08T00:16:22.902Z,73.60
2018-09-08T00:18:56.422Z,73.40
2018-09-08T00:21:29.999Z,73.40
2018-09-08T00:24:03.450Z,73.60
2018-09-08T00:26:33.719Z,73.60
2018-09-08T00:29:08.755Z,74.00
2018-09-08T00:31:36.803Z,73.00
2018-09-08T00:34:04.867Z,72.10
2018-09-08T00:36:33.079Z,72.00
2018-09-08T00:39:01.188Z,72.20
2018-09-08T00:41:29.333Z,72.50
2018-09-08T00:43:57.418Z,72.90
2018-09-08T00:46:25.505Z,73.10
2018-09-08T00:48:53.550Z,73.20
2018-09-08T00:51:21.640Z,73.40
2018-09-08T00:53:49.722Z,73.70
2018-09-08T00:56:17.789Z,73.90
2018-09-08T00:58:51.424Z,74.10
2018-09-08T01:01:19.495Z,73.90
2018-09-08T01:03:47.671Z,73.90
2018-09-08T01:06:15.703Z,74.00
2018-09-08T01:08:43.826Z,73.80
2018-09-08T01:11:11.909Z,73.30
2018-09-08T01:13:39.981Z,73.90
2018-09-08T01:16:08.056Z,72.90
2018-09-08T01:18:36.802Z,72.90
2018-09-08T01:21:05.982Z,72.90
2018-09-08T01:23:34.110Z,72.90
2018-09-08T01:26:02.393Z,72.70
2018-09-08T01:28:30.516Z,72.60
2018-09-08T01:30:58.595Z,72.20
2018-09-08T01:33:26.903Z,72.00
2018-09-08T01:35:55.228Z,71.70
2018-09-08T01:38:23.300Z,71.20
2018-09-08T01:40:51.372Z,70.60
2018-09-08T01:43:19.503Z,70.50
2018-09-08T01:45:47.578Z,70.10
2018-09-08T01:48:15.697Z,70.20
2018-09-08T01:50:43.781Z,69.40
2018-09-08T01:53:11.862Z,69.20
2018-09-08T01:55:39.917Z,69.00
2018-09-08T01:58:07.986Z,68.60
2018-09-08T02:00:36.481Z,68.30
2018-09-08T02:03:04.763Z,68.20
2018-09-08T02:05:32.928Z,68.40
2018-09-08T02:08:01.020Z,68.00
2018-09-08T02:10:29.117Z,68.20
2018-09-08T02:12:57.159Z,68.00
2018-09-08T02:15:25.236Z,67.60
2018-09-08T02:17:53.367Z,67.50
2018-09-08T02:20:21.468Z,67.70
2018-09-08T02:22:49.531Z,67.60
2018-09-08T02:25:17.649Z,67.30
2018-09-08T02:27:45.724Z,67.00
2018-09-08T02:30:13.770Z,66.80
2018-09-08T02:32:41.897Z,66.70
2018-09-08T02:35:09.944Z,66.30
2018-09-08T02:37:37.974Z,66.20
2018-09-08T02:40:06.060Z,66.50
2018-09-08T02:42:34.219Z,66.70
2018-09-08T02:45:02.324Z,66.30
2018-09-08T02:47:30.372Z,66.80
2018-09-08T02:50:09.985Z,66.70
2018-09-08T02:52:37.145Z,66.70
2018-09-08T02:55:04.343Z,66.70
2018-09-08T02:57:31.532Z,66.30
2018-09-08T02:59:58.712Z,66.40
2018-09-08T03:02:25.895Z,66.20
2018-09-08T03:04:53.124Z,66.30
2018-09-08T03:07:20.335Z,66.00
2018-09-08T03:09:47.554Z,66.10
2018-09-08T03:12:14.744Z,65.80
2018-09-08T03:14:41.937Z,65.60
2018-09-08T03:17:09.151Z,65.50
2018-09-08T03:19:36.362Z,65.50
2018-09-08T03:22:03.532Z,66.30
2018-09-08T03:24:30.733Z,65.20
2018-09-08T03:26:57.914Z,65.80
2018-09-08T03:29:25.124Z,66.20
2018-09-08T03:31:52.353Z,66.60
2018-09-08T03:34:19.545Z,66.20
2018-09-08T03:36:46.715Z,66.40
2018-09-08T03:39:13.908Z,66.70
2018-09-08T03:41:41.105Z,66.90
2018-09-08T03:44:08.301Z,67.20
2018-09-08T03:46:35.491Z,67.70
2018-09-08T03:49:02.729Z,67.90
2018-09-08T03:51:29.924Z,68.40
2018-09-08T03:53:57.106Z,67.80
2018-09-08T03:56:24.293Z,68.20
2018-09-08T03:58:51.642Z,68.60
2018-09-08T04:01:18.802Z,69.10
2018-09-08T04:03:47.087Z,69.50
2018-09-08T04:06:15.231Z,69.80
2018-09-08T04:08:43.369Z,70.20
2018-09-08T04:11:11.598Z,70.60
2018-09-08T04:13:39.674Z,70.90
2018-09-08T04:16:07.775Z,71.00
2018-09-08T04:18:36.030Z,71.30
2018-09-08T04:21:04.121Z,71.60
2018-09-08T04:23:32.200Z,72.00
2018-09-08T04:26:00.718Z,71.70
2018-09-08T04:28:28.944Z,71.80
2018-09-08T04:30:57.052Z,72.30
2018-09-08T04:33:25.185Z,72.30
2018-09-08T04:35:53.269Z,72.60
2018-09-08T04:38:21.611Z,73.00
2018-09-08T04:40:49.729Z,73.50
2018-09-08T04:43:17.985Z,73.80
2018-09-08T04:45:46.143Z,74.10
2018-09-08T04:48:14.232Z,75.00
2018-09-08T04:50:42.816Z,74.00
2018-09-08T04:53:10.862Z,73.60
2018-09-08T04:55:39.054Z,73.60
2018-09-08T04:58:07.165Z,73.70
2018-09-08T05:00:35.404Z,73.90
2018-09-08T05:03:03.560Z,73.80
2018-09-08T05:05:31.848Z,73.60
2018-09-08T05:07:59.909Z,73.30
2018-09-08T05:10:28.084Z,73.00
2018-09-08T05:12:56.936Z,73.00
2018-09-08T05:15:25.058Z,73.10
2018-09-08T05:17:53.170Z,73.00
2018-09-08T05:20:21.273Z,72.90
2018-09-08T05:22:49.376Z,72.70
2018-09-08T05:25:17.470Z,72.60
2018-09-08T05:27:45.535Z,72.20
2018-09-08T05:30:13.607Z,71.90
2018-09-08T05:32:41.851Z,71.70
2018-09-08T05:35:09.969Z,71.80
2018-09-08T05:37:38.024Z,71.60
2018-09-08T05:40:06.334Z,71.10
2018-09-08T05:42:34.395Z,70.80
2018-09-08T05:45:02.456Z,69.80
2018-09-08T05:47:30.540Z,68.00
2018-09-08T05:49:58.592Z,66.10
2018-09-08T05:52:26.689Z,66.20
2018-09-08T05:54:54.800Z,65.40
2018-09-08T05:57:22.946Z,64.80
2018-09-08T05:59:51.310Z,64.10
2018-09-08T06:02:20.167Z,63.70
2018-09-08T06:04:48.756Z,62.90
2018-09-08T06:07:16.847Z,62.20
2018-09-08T06:09:44.915Z,61.60
2018-09-08T06:12:13.095Z,60.70
2018-09-08T06:14:41.166Z,60.80
2018-09-08T06:17:09.291Z,59.90
2018-09-08T06:19:39.056Z,59.20
2018-09-08T06:22:07.154Z,59.20
2018-09-08T06:24:35.346Z,59.40
2018-09-08T06:27:03.348Z,59.20
2018-09-08T06:29:31.397Z,58.70
2018-09-08T06:31:59.565Z,58.10
2018-09-08T06:34:27.649Z,59.20
2018-09-08T06:36:55.776Z,58.30
2018-09-08T06:39:25.841Z,58.10
2018-09-08T06:41:53.927Z,58.30
2018-09-08T06:44:21.982Z,57.40
2018-09-08T06:46:50.087Z,56.80
2018-09-08T06:49:18.236Z,56.50
2018-09-08T06:51:46.333Z,56.60
2018-09-08T06:54:14.424Z,56.30
2018-09-08T06:56:42.757Z,56.30
2018-09-08T06:59:10.813Z,56.30
2018-09-08T07:01:38.955Z,57.30
2018-09-08T07:04:07.067Z,56.80
2018-09-08T07:06:35.128Z,57.20
2018-09-08T07:09:03.252Z,56.10
2018-09-08T07:11:31.318Z,54.80
2018-09-08T07:13:59.457Z,53.20
2018-09-08T07:16:27.537Z,51.40
2018-09-08T07:18:55.641Z,49.60
2018-09-08T07:21:23.737Z,47.50
2018-09-08T07:23:51.867Z,47.90
2018-09-08T07:26:19.928Z,47.70
2018-09-08T07:28:48.007Z,48.10
2018-09-08T07:31:16.104Z,48.10
2018-09-08T07:33:44.183Z,49.30
2018-09-08T07:36:12.230Z,49.20
2018-09-08T07:38:40.307Z,50.40
2018-09-08T07:41:08.385Z,50.40
2018-09-08T07:43:36.463Z,51.20
2018-09-08T07:46:05.066Z,50.70
2018-09-08T07:48:33.145Z,49.50
2018-09-08T07:51:01.218Z,49.80
2018-09-08T07:53:31.247Z,51.10
2018-09-08T07:55:59.184Z,50.40
2018-09-08T07:58:27.264Z,48.50
2018-09-08T08:00:55.409Z,47.30
2018-09-08T08:03:23.476Z,47.70
2018-09-08T08:05:51.703Z,48.70
2018-09-08T08:08:19.782Z,47.60
2018-09-08T08:10:47.825Z,47.40
2018-09-08T08:13:15.932Z,47.20
2018-09-08T08:15:43.995Z,46.80
2018-09-08T08:18:12.047Z,48.10
2018-09-08T08:20:40.121Z,46.60
2018-09-08T08:23:08.227Z,46.20
2018-09-08T08:25:36.266Z,47.40
2018-09-08T08:28:04.342Z,47.20
2018-09-08T08:30:32.413Z,48.10
2018-09-08T08:33:00.450Z,46.80
2018-09-08T08:35:28.554Z,46.60
2018-09-08T08:37:56.637Z,47.30
2018-09-08T08:40:24.715Z,46.50
2018-09-08T08:42:52.791Z,47.40
2018-09-08T08:45:20.869Z,46.50
2018-09-08T08:47:48.951Z,46.20
2018-09-08T08:50:28.649Z,46.10
2018-09-08T08:53:08.154Z,46.00
2018-09-08T08:55:36.292Z,47.00
2018-09-08T08:58:04.347Z,47.20
2018-09-08T09:00:32.475Z,47.40
2018-09-08T09:03:00.547Z,46.70
2018-09-08T09:05:28.669Z,46.80
2018-09-08T09:07:56.747Z,46.60
2018-09-08T09:10:24.856Z,47.40
2018-09-08T09:12:52.968Z,48.00
2018-09-08T09:15:21.377Z,47.40
2018-09-08T09:17:49.220Z,47.20
2018-09-08T09:20:28.787Z,47.20
2018-09-08T09:24:12.026Z,46.60
2018-09-08T09:26:40.064Z,47.30
2018-09-08T09:29:08.162Z,47.20
2018-09-08T09:31:36.319Z,47.00
2018-09-08T09:34:04.436Z,46.80
2018-09-08T09:36:32.592Z,47.00
2018-09-08T09:39:00.893Z,46.50
2018-09-08T09:41:28.951Z,46.60
2018-09-08T09:43:57.007Z,46.40
2018-09-08T09:46:25.129Z,46.40
2018-09-08T09:48:53.227Z,46.20
2018-09-08T09:51:21.303Z,46.50
2018-09-08T09:53:49.358Z,46.50
2018-09-08T09:56:17.445Z,46.10
2018-09-08T09:58:45.507Z,46.80
2018-09-08T10:01:13.638Z,46.40
2018-09-08T10:03:41.790Z,46.20
2018-09-08T10:06:09.872Z,45.70
2018-09-08T10:08:37.944Z,45.40
2018-09-08T10:11:06.185Z,45.50
2018-09-08T10:13:34.322Z,45.10
2018-09-08T10:16:02.448Z,44.30
2018-09-08T10:18:30.567Z,43.90
2018-09-08T10:20:58.635Z,44.70
2018-09-08T10:23:26.776Z,44.30
2018-09-08T10:25:54.858Z,44.50
2018-09-08T10:28:22.931Z,44.50
2018-09-08T10:30:51.022Z,44.90
2018-09-08T10:33:19.084Z,44.60
2018-09-08T10:35:47.149Z,44.10
2018-09-08T10:38:15.211Z,43.90
2018-09-08T10:40:43.286Z,44.40
2018-09-08T10:43:11.364Z,43.90
2018-09-08T10:45:39.446Z,44.60
2018-09-08T10:48:07.501Z,44.10
2018-09-08T10:50:35.564Z,43.70
2018-09-08T10:53:03.623Z,43.70
2018-09-08T10:55:31.720Z,42.50
2018-09-08T10:57:59.815Z,42.80
2018-09-08T11:00:27.974Z,43.00
2018-09-08T11:02:56.168Z,43.60
2018-09-08T11:05:24.170Z,43.00
2018-09-08T11:07:52.233Z,42.30
2018-09-08T11:10:20.286Z,41.90
2018-09-08T11:12:48.460Z,41.20
2018-09-08T11:15:16.555Z,41.80
2018-09-08T11:17:44.748Z,42.40
2018-09-08T11:20:12.863Z,42.10
2018-09-08T11:22:40.916Z,42.20
2018-09-08T11:25:08.973Z,41.90
2018-09-08T11:27:37.056Z,41.70
2018-09-08T11:30:05.982Z,40.90
2018-09-08T11:32:34.060Z,40.20
2018-09-08T11:35:02.114Z,39.50
2018-09-08T11:37:30.199Z,39.40
2018-09-08T11:39:58.338Z,40.10
2018-09-08T11:42:26.663Z,40.60
2018-09-08T11:44:54.922Z,40.40
2018-09-08T11:47:22.910Z,40.20
2018-09-08T11:49:51.066Z,40.30
2018-09-08T11:52:19.164Z,40.30
2018-09-08T11:54:47.254Z,39.90
2018-09-08T11:57:15.345Z,39.30
2018-09-08T11:59:46.730Z,39.00
2018-09-08T12:02:14.875Z,38.70
2018-09-08T12:04:42.945Z,38.10
2018-09-08T12:07:11.030Z,38.50
2018-09-08T12:09:39.104Z,38.70
2018-09-08T12:12:07.197Z,37.90
2018-09-08T12:14:35.323Z,37.50
2018-09-08T12:17:03.419Z,38.00
2018-09-08T12:19:31.514Z,38.90
2018-09-08T12:21:59.562Z,39.50
2018-09-08T12:24:27.624Z,40.10
2018-09-08T12:26:56.545Z,40.00
2018-09-08T12:29:25.140Z,39.80
2018-09-08T12:31:53.378Z,39.00
2018-09-08T12:34:21.440Z,39.10
2018-09-08T12:36:49.523Z,39.00
2018-09-08T12:39:17.634Z,39.20
2018-09-08T12:41:45.719Z,39.00
2018-09-08T12:44:13.802Z,39.10
2018-09-08T12:46:41.946Z,38.40
2018-09-08T12:49:10.048Z,38.80
2018-09-08T12:51:38.096Z,38.80
2018-09-08T12:54:06.206Z,38.80
2018-09-08T12:56:34.637Z,38.80
2018-09-08T12:59:02.757Z,39.40
2018-09-08T13:01:30.768Z,38.40
2018-09-08T13:03:58.881Z,38.40
2018-09-08T13:06:26.953Z,38.60
2018-09-08T13:08:55.054Z,38.30
2018-09-08T13:11:23.443Z,38.80
2018-09-08T13:13:51.518Z,39.40
2018-09-08T13:16:19.642Z,39.40
2018-09-08T13:18:49.644Z,39.50
2018-09-08T13:21:17.760Z,39.70
2018-09-08T13:23:46.050Z,39.90
2018-09-08T13:26:14.111Z,40.10
2018-09-08T13:28:42.197Z,40.20
2018-09-08T13:31:10.353Z,40.20
2018-09-08T13:33:38.471Z,40.60
2018-09-08T13:36:06.556Z,40.10
2018-09-08T13:38:34.641Z,39.40
2018-09-08T13:41:02.703Z,38.60
2018-09-08T13:43:30.779Z,38.80
2018-09-08T13:45:58.884Z,39.40
2018-09-08T13:48:27.873Z,39.00
2018-09-08T13:50:55.947Z,39.00
2018-09-08T13:53:24.058Z,39.40
2018-09-08T13:55:52.131Z,38.80
2018-09-08T13:58:20.252Z,38.80
2018-09-08T14:00:48.314Z,39.10
2018-09-08T14:03:16.412Z,38.90
2018-09-08T14:05:44.511Z,38.90
2018-09-08T14:08:15.121Z,38.90
2018-09-08T14:10:43.995Z,38.50
2018-09-08T14:13:12.109Z,38.20
2018-09-08T14:15:40.229Z,38.00
2018-09-08T14:18:08.340Z,38.00
2018-09-08T14:20:36.419Z,38.80
2018-09-08T14:23:05.974Z,39.00
2018-09-08T14:25:40.778Z,38.00
2018-09-08T14:28:08.852Z,38.00
2018-09-08T14:30:36.956Z,37.60
2018-09-08T14:33:05.038Z,37.50
2018-09-08T14:35:33.138Z,37.20
2018-09-08T14:38:01.207Z,37.90
2018-09-08T14:40:29.319Z,37.90
2018-09-08T14:42:57.416Z,37.90
2018-09-08T14:45:25.837Z,38.10
2018-09-08T14:47:54.228Z,38.90
2018-09-08T14:50:22.337Z,38.60
2018-09-08T14:52:50.410Z,38.10
2018-09-08T14:55:18.528Z,37.80
2018-09-08T14:57:46.594Z,38.00
2018-09-08T15:00:14.665Z,37.80
2018-09-08T15:02:42.769Z,38.10
2018-09-08T15:05:10.854Z,38.90
2018-09-08T15:07:38.929Z,38.80
2018-09-08T15:10:07.028Z,38.00
2018-09-08T15:12:35.132Z,38.20
2018-09-08T15:15:03.204Z,38.90
2018-09-08T15:17:31.299Z,39.00
2018-09-08T15:19:59.370Z,39.00
2018-09-08T15:22:27.474Z,38.70
2018-09-08T15:24:55.542Z,38.60
2018-09-08T15:27:23.635Z,39.30
2018-09-08T15:29:51.687Z,40.00
2018-09-08T15:32:19.781Z,39.50
2018-09-08T15:34:47.885Z,40.20
2018-09-08T15:37:15.938Z,40.20
2018-09-08T15:39:44.047Z,40.90
2018-09-08T15:42:12.103Z,41.20
2018-09-08T15:44:40.208Z,41.10
2018-09-08T15:47:08.257Z,40.80
2018-09-08T15:49:36.401Z,41.00
2018-09-08T15:52:04.490Z,40.90
2018-09-08T15:54:32.585Z,41.20
2018-09-08T15:57:00.644Z,41.30
2018-09-08T15:59:28.825Z,40.60
2018-09-08T16:01:56.899Z,41.10
2018-09-08T16:04:24.990Z,40.80
2018-09-08T16:06:53.085Z,41.30
2018-09-08T16:09:21.182Z,42.00
2018-09-08T16:11:49.248Z,41.60
2018-09-08T16:14:17.341Z,41.90
2018-09-08T16:16:45.457Z,41.30
2018-09-08T16:19:13.499Z,41.30
2018-09-08T16:21:41.601Z,41.50
2018-09-08T16:24:09.796Z,42.00
2018-09-08T16:26:37.922Z,42.50
2018-09-08T16:29:06.283Z,42.20
2018-09-08T16:31:34.391Z,42.70
2018-09-08T16:34:02.582Z,42.60
2018-09-08T16:36:30.784Z,41.90
2018-09-08T16:38:59.125Z,41.60
2018-09-08T16:41:27.251Z,41.60
2018-09-08T16:43:55.321Z,42.30
2018-09-08T16:46:23.454Z,42.70
2018-09-08T16:48:51.572Z,43.30
2018-09-08T16:51:19.888Z,43.80
2018-09-08T16:53:47.961Z,43.80
2018-09-08T16:56:16.064Z,43.90
2018-09-08T16:58:44.165Z,43.80
2018-09-08T17:01:12.251Z,43.80
2018-09-08T17:06:15.071Z,44.20
2018-09-08T17:08:43.526Z,44.60
2018-09-08T17:11:11.592Z,45.00
2018-09-08T17:13:39.709Z,45.40
2018-09-08T17:16:07.848Z,45.60
2018-09-08T17:18:35.941Z,45.90
2018-09-08T17:21:04.036Z,46.20
2018-09-08T17:23:32.074Z,47.10
2018-09-08T17:26:06.128Z,46.80
2018-09-08T17:28:34.402Z,47.10
2018-09-08T17:31:02.696Z,47.70
2018-09-08T17:33:30.860Z,48.30
2018-09-08T17:35:58.929Z,48.90
2018-09-08T17:38:27.055Z,49.20
2018-09-08T17:40:55.136Z,48.50
2018-09-08T17:43:23.258Z,48.40
2018-09-08T17:45:51.448Z,48.40
2018-09-08T17:48:19.551Z,48.60
2018-09-08T17:50:47.648Z,48.70
2018-09-08T17:53:15.822Z,48.90
2018-09-08T17:55:43.895Z,49.00
2018-09-08T17:58:12.006Z,49.50
2018-09-08T18:00:40.134Z,50.20
2018-09-08T18:03:08.266Z,50.70
2018-09-08T18:05:36.381Z,51.40
2018-09-08T18:08:04.470Z,51.80
2018-09-08T18:10:32.572Z,52.20
2018-09-08T18:13:00.651Z,52.60
2018-09-08T18:15:28.724Z,53.10
2018-09-08T18:17:56.854Z,53.30
2018-09-08T18:20:24.997Z,53.50
2018-09-08T18:22:53.184Z,53.70
2018-09-08T18:25:21.271Z,53.90
2018-09-08T18:27:49.408Z,54.80
2018-09-08T18:30:17.528Z,54.50
2018-09-08T18:32:45.666Z,54.70
2018-09-08T18:35:13.690Z,54.60
2018-09-08T18:37:41.806Z,54.90
2018-09-08T18:40:09.972Z,55.30
2018-09-08T18:42:38.094Z,55.60
2018-09-08T18:45:06.256Z,56.10
2018-09-08T18:47:34.404Z,56.20
2018-09-08T18:50:02.536Z,56.30
2018-09-08T18:52:30.839Z,56.40
2018-09-08T18:54:59.169Z,56.50
2018-09-08T18:57:27.401Z,56.10
2018-09-08T18:59:55.483Z,56.30
2018-09-08T19:02:23.567Z,56.50
2018-09-08T19:04:51.605Z,56.20
2018-09-08T19:07:19.659Z,56.30
2018-09-08T19:09:51.988Z,56.60
2018-09-08T19:12:20.423Z,56.60
2018-09-08T19:14:54.032Z,56.60
2018-09-08T19:17:22.145Z,56.50
2018-09-08T19:19:52.566Z,56.90
2018-09-08T19:22:20.693Z,57.30
2018-09-08T19:24:48.815Z,57.70
2018-09-08T19:27:16.960Z,57.70
2018-09-08T19:29:48.533Z,58.00
2018-09-08T19:32:17.551Z,58.20
2018-09-08T19:34:49.911Z,58.40
2018-09-08T19:37:18.044Z,58.70
2018-09-08T19:39:46.163Z,58.90
2018-09-08T19:42:14.294Z,59.10
2018-09-08T19:44:42.452Z,59.30
2018-09-08T19:47:15.972Z,59.30
2018-09-08T19:49:44.238Z,59.30
2018-09-08T19:52:17.697Z,59.40
2018-09-08T19:54:45.847Z,59.10
2018-09-08T19:57:19.288Z,59.40
2018-09-08T19:59:47.404Z,59.70
2018-09-08T20:02:15.708Z,60.00
2018-09-08T20:04:43.921Z,60.00
2018-09-08T20:07:12.130Z,60.10
2018-09-08T20:09:40.405Z,60.00
2018-09-08T20:12:08.724Z,60.20
2018-09-08T20:14:36.800Z,60.40
2018-09-08T20:17:05.049Z,60.80
2018-09-08T20:19:33.239Z,61.10
2018-09-08T20:22:01.401Z,61.10
2018-09-08T20:24:29.589Z,61.60
2018-09-08T20:26:57.694Z,61.40
2018-09-08T20:29:25.798Z,61.70
2018-09-08T20:31:54.116Z,61.40
2018-09-08T20:34:22.207Z,61.30
2018-09-08T20:36:50.701Z,61.60
2018-09-08T20:39:18.868Z,61.30
2018-09-08T20:41:46.992Z,61.50
2018-09-08T20:44:16.468Z,61.10
2018-09-08T20:46:44.531Z,60.90
2018-09-08T20:49:12.594Z,60.90
2018-09-08T20:51:40.680Z,60.00
2018-09-08T20:54:09.369Z,59.80
2018-09-08T20:56:37.632Z,60.10
2018-09-08T20:59:06.140Z,59.40
2018-09-08T21:01:34.324Z,59.70
2018-09-08T21:04:02.398Z,60.00
2018-09-08T21:06:30.766Z,60.70
2018-09-08T21:08:58.869Z,60.60
2018-09-08T21:11:27.030Z,60.40
2018-09-08T21:13:55.139Z,60.60
2018-09-08T21:16:23.200Z,60.30
2018-09-08T21:18:51.259Z,60.50
2018-09-08T21:21:19.517Z,60.50
2018-09-08T21:23:47.695Z,60.10
2018-09-08T21:26:15.845Z,59.50
2018-09-08T21:28:44.084Z,58.70
2018-09-08T21:31:12.572Z,58.30
2018-09-08T21:33:40.883Z,58.20
2018-09-08T21:36:09.243Z,58.20
2018-09-08T21:38:37.323Z,58.20
2018-09-08T21:41:05.921Z,58.20
2018-09-08T21:43:34.024Z,58.20
2018-09-08T21:46:02.109Z,58.40
2018-09-08T21:48:30.181Z,57.80
2018-09-08T21:50:58.259Z,57.90
2018-09-08T21:53:26.545Z,58.10
2018-09-08T21:55:55.251Z,57.90
2018-09-08T21:58:23.321Z,57.70
2018-09-08T22:00:55.491Z,57.40
2018-09-08T22:03:25.760Z,57.20
2018-09-08T22:05:53.841Z,57.40
2018-09-08T22:08:21.936Z,57.00
2018-09-08T22:10:50.004Z,57.20
2018-09-08T22:13:18.102Z,57.10
2018-09-08T22:15:46.182Z,56.90
2018-09-08T22:18:14.248Z,57.20
2018-09-08T22:20:42.372Z,57.50
2018-09-08T22:23:10.474Z,57.50
2018-09-08T22:25:38.537Z,57.70
2018-09-08T22:28:06.743Z,58.30
2018-09-08T22:30:34.832Z,58.40
2018-09-08T22:33:02.969Z,58.80
2018-09-08T22:35:31.095Z,59.00
2018-09-08T22:37:59.158Z,59.10
2018-09-08T22:40:27.228Z,59.10
2018-09-08T22:42:55.337Z,59.10
2018-09-08T22:45:23.435Z,59.30
2018-09-08T22:47:51.513Z,59.50
2018-09-08T22:50:19.779Z,59.80
2018-09-08T22:52:47.874Z,59.80
2018-09-08T22:55:15.949Z,59.40
2018-09-08T22:57:44.010Z,59.30
2018-09-08T23:00:12.153Z,59.40
2018-09-08T23:02:40.230Z,59.50
2018-09-08T23:05:08.570Z,59.00
2018-09-08T23:07:36.657Z,59.80
2018-09-08T23:10:04.777Z,59.70
2018-09-08T23:12:32.923Z,59.80
2018-09-08T23:15:00.996Z,60.00
2018-09-08T23:17:29.081Z,60.50
2018-09-08T23:19:57.268Z,60.50
2018-09-08T23:22:25.377Z,60.50
2018-09-08T23:24:53.458Z,60.60
2018-09-08T23:27:21.620Z,60.40
2018-09-08T23:29:49.719Z,60.60
2018-09-08T23:32:17.799Z,60.40
2018-09-08T23:34:45.925Z,60.60
2018-09-08T23:37:14.084Z,60.80
2018-09-08T23:39:42.192Z,61.00
2018-09-08T23:42:10.280Z,60.90
2018-09-08T23:44:38.414Z,60.90
2018-09-08T23:47:06.500Z,61.30
2018-09-08T23:49:34.588Z,61.80
2018-09-08T23:52:02.684Z,62.00
2018-09-08T23:54:30.769Z,62.30
2018-09-08T23:56:58.831Z,62.70
2018-09-08T23:59:26.902Z,62.90
